Time;durP1;ratioP1;P1;durP2;ratioP2;P2;SDS_P1;SDS_P2;PMS_P1;PMS_P2;Temp;Humidity;BMP_temperature;BMP_pressure;BME280_temperature;BME280_humidity;BME280_pressure;Samples;Min_cycle;Max_cycle;Signal;HPM_P1;HPM_P2
2022/12/10 00:01:30;;;;;;;15.18;3.95;;;19.10;46.80;;;;;;5016645;28;20471;-61
2022/12/10 00:03:57;;;;;;;16.20;4.75;;;19.00;47.20;;;;;;5017388;28;20075;-64
2022/12/10 00:06:26;;;;;;;35.10;19.98;;;19.00;47.50;;;;;;5023293;28;20227;-62
2022/12/10 00:08:53;;;;;;;29.65;14.68;;;18.80;47.90;;;;;;5019964;28;20563;-63
2022/12/10 00:11:22;;;;;;;14.60;4.10;;;18.80;48.50;;;;;;5017425;28;20493;-64
2022/12/10 00:13:49;;;;;;;12.45;3.47;;;18.80;48.30;;;;;;5020964;28;20085;-64
2022/12/10 00:16:20;;;;;;;21.23;3.63;;;18.70;48.20;;;;;;5018196;28;20094;-62
2022/12/10 00:18:48;;;;;;;14.88;3.75;;;18.60;48.50;;;;;;5018744;28;20559;-66
2022/12/10 00:21:26;;;;;;;21.85;3.75;;;18.50;48.40;;;;;;5021828;28;20631;-61
2022/12/10 00:23:53;;;;;;;41.38;4.85;;;18.50;48.30;;;;;;5020818;28;20066;-63
2022/12/10 00:26:23;;;;;;;14.02;3.28;;;18.40;53.40;;;;;;5018183;28;20105;-64
2022/12/10 00:28:51;;;;;;;67.40;6.72;;;18.30;54.80;;;;;;5023514;28;20127;-64
2022/12/10 00:31:23;;;;;;;43.50;5.30;;;18.10;62.50;;;;;;5016415;28;20116;-63
2022/12/10 00:33:50;;;;;;;26.08;4.32;;;18.00;62.00;;;;;;5019187;28;20670;-64
2022/12/10 00:36:20;;;;;;;43.08;5.28;;;17.90;61.70;;;;;;5020582;28;20136;-63
2022/12/10 00:38:48;;;;;;;57.88;6.70;;;17.70;60.00;;;;;;5018287;28;20078;-61
2022/12/10 00:41:15;;;;;;;40.13;5.97;;;17.60;62.00;;;;;;5019371;28;20070;-63
2022/12/10 00:43:42;;;;;;;30.55;5.57;;;17.40;63.70;;;;;;5021603;28;20074;-62
2022/12/10 00:46:09;;;;;;;25.35;5.20;;;17.30;63.50;;;;;;5021856;28;20160;-61
2022/12/10 00:48:36;;;;;;;21.63;5.28;;;17.20;67.10;;;;;;5023317;28;20114;-61
2022/12/10 00:51:07;;;;;;;26.85;4.90;;;17.00;66.70;;;;;;5024287;28;20207;-60
2022/12/10 00:53:35;;;;;;;38.60;5.78;;;16.90;65.70;;;;;;5023277;28;20085;-60
2022/12/10 00:56:03;;;;;;;27.35;5.00;;;16.80;66.10;;;;;;5023608;28;20093;-60
2022/12/10 00:58:34;;;;;;;30.55;4.85;;;16.70;65.40;;;;;;5020129;28;20091;-61
2022/12/10 01:01:20;;;;;;;29.55;6.20;;;16.60;65.40;;;;;;5020324;28;20078;-62
2022/12/10 01:03:49;;;;;;;40.72;6.30;;;16.50;62.70;;;;;;5016672;28;20439;-61
2022/12/10 01:06:22;;;;;;;58.72;15.60;;;16.40;62.50;;;;;;5017539;28;20090;-61
2022/12/10 01:08:51;;;;;;;43.75;6.25;;;16.30;61.80;;;;;;5017807;28;20184;-61
2022/12/10 01:11:19;;;;;;;46.45;6.43;;;16.20;61.10;;;;;;5018985;28;20086;-63
2022/12/10 01:13:47;;;;;;;56.92;7.38;;;16.10;60.00;;;;;;5018126;28;20074;-63
2022/12/10 01:16:16;;;;;;;57.63;8.40;;;16.00;61.90;;;;;;5016613;28;20105;-61
2022/12/10 01:18:43;;;;;;;42.72;7.18;;;15.90;61.50;;;;;;5019449;28;20605;-62
2022/12/10 01:21:13;;;;;;;63.40;7.88;;;15.90;63.30;;;;;;5021004;28;20097;-61
2022/12/10 01:23:42;;;;;;;53.90;8.00;;;15.80;63.30;;;;;;5015716;28;20082;-61
2022/12/10 01:26:12;;;;;;;56.78;8.23;;;15.70;63.60;;;;;;5022915;28;20074;-61
2022/12/10 01:28:39;;;;;;;49.72;7.57;;;15.60;63.20;;;;;;5019964;28;20172;-63
2022/12/10 01:31:09;;;;;;;66.22;8.65;;;15.60;64.40;;;;;;5022428;28;20070;-62
2022/12/10 01:33:37;;;;;;;61.10;8.27;;;15.50;67.70;;;;;;5022721;28;20110;-62
2022/12/10 01:36:15;;;;;;;58.85;10.43;;;15.40;67.10;;;;;;5020326;28;20094;-62
2022/12/10 01:38:42;;;;;;;30.33;6.82;;;15.40;64.30;;;;;;5016659;28;20074;-63
2022/12/10 01:41:24;;;;;;;56.17;7.38;;;15.30;64.20;;;;;;5027030;28;20077;-63
2022/12/10 01:43:56;;;;;;;43.58;7.95;;;15.20;64.20;;;;;;5022944;28;20074;-64
2022/12/10 01:46:24;;;;;;;40.78;8.90;;;15.10;64.80;;;;;;5016585;28;20133;-63
2022/12/10 01:48:51;;;;;;;41.45;8.20;;;15.10;65.30;;;;;;5016749;28;20114;-62
2022/12/10 01:51:18;;;;;;;63.30;9.40;;;15.10;64.00;;;;;;5017562;28;20446;-62
2022/12/10 01:53:45;;;;;;;113.60;11.70;;;14.90;64.00;;;;;;5016025;28;20077;-63
2022/12/10 01:56:13;;;;;;;54.58;9.50;;;15.00;64.30;;;;;;5019528;28;20136;-64
2022/12/10 01:58:39;;;;;;;62.05;10.88;;;14.90;65.00;;;;;;5016137;28;20066;-63
2022/12/10 02:01:29;;;;;;;81.32;11.38;;;14.80;64.70;;;;;;5022058;28;20066;-62
2022/12/10 02:04:26;;;;;;;68.32;12.40;;;14.80;65.30;;;;;;4993635;28;20082;-64
2022/12/10 02:07:03;;;;;;;86.00;14.20;;;14.80;64.60;;;;;;5020455;28;20077;-65
2022/12/10 02:11:00;;;;;;;79.72;13.35;;;14.70;66.50;;;;;;5099826;27;20525;-63
2022/12/10 02:13:36;;;;;;;65.00;11.15;;;14.60;67.80;;;;;;5093568;28;20076;-63
2022/12/10 02:16:16;;;;;;;61.97;12.18;;;14.60;67.30;;;;;;5098327;28;20172;-65
2022/12/10 02:18:51;;;;;;;51.20;10.25;;;14.50;68.20;;;;;;5097134;28;20069;-63
2022/12/10 02:21:28;;;;;;;43.53;10.52;;;14.50;66.90;;;;;;5089467;28;20417;-64
2022/12/10 02:24:04;;;;;;;71.55;11.57;;;14.40;67.90;;;;;;5095077;28;20448;-63
2022/12/10 02:26:41;;;;;;;75.15;13.65;;;14.40;67.50;;;;;;5095412;28;20076;-63
2022/12/10 02:29:18;;;;;;;59.38;15.40;;;14.40;67.90;;;;;;5095651;28;20088;-63
2022/12/10 02:32:07;;;;;;;;;;;14.30;68.30;;;;;;5095034;28;20071;-62
2022/12/10 02:34:39;;;;;;;57.65;14.77;;;14.20;69.00;;;;;;5091450;28;19960;-61
2022/12/10 02:37:28;;;;;;;51.90;13.82;;;14.20;69.70;;;;;;5100264;28;20160;-62
2022/12/10 02:39:57;;;;;;;56.88;15.43;;;14.10;68.90;;;;;;5101870;28;20129;-62
2022/12/10 02:42:26;;;;;;;55.35;14.75;;;14.10;69.60;;;;;;5098347;28;20440;-62
2022/12/10 02:44:54;;;;;;;53.88;14.18;;;14.10;69.20;;;;;;5095279;28;20076;-64
2022/12/10 02:47:21;;;;;;;57.03;14.45;;;14.00;69.40;;;;;;5097413;28;20080;-62
2022/12/10 02:49:51;;;;;;;47.28;14.50;;;13.90;69.60;;;;;;5095291;28;20177;-64
2022/12/10 02:52:19;;;;;;;61.92;14.07;;;13.90;70.20;;;;;;5096873;28;20083;-63
2022/12/10 02:54:48;;;;;;;74.78;16.23;;;13.90;68.90;;;;;;5097167;28;20522;-64
2022/12/10 02:57:41;;;;;;;74.22;15.32;;;13.80;70.30;;;;;;5092138;28;20077;-65
2022/12/10 03:00:16;;;;;;;58.70;16.25;;;13.90;69.40;;;;;;5097560;28;20077;-63
2022/12/10 03:02:48;;;;;;;53.20;15.02;;;13.80;70.40;;;;;;5095647;28;20071;-62
2022/12/10 03:05:22;;;;;;;56.90;14.75;;;13.80;70.90;;;;;;5100384;28;20422;-63
2022/12/10 03:08:07;;;;;;;53.78;15.52;;;13.70;71.10;;;;;;5099318;28;20440;-63
2022/12/10 03:10:43;;;;;;;69.53;17.77;;;13.70;70.00;;;;;;5097944;28;20476;-62
2022/12/10 03:13:14;;;;;;;74.68;20.67;;;13.60;69.50;;;;;;5096723;28;20072;-63
2022/12/10 03:15:43;;;;;;;81.65;21.75;;;14.00;69.10;;;;;;5094716;28;20572;-63
2022/12/10 03:18:11;;;;;;;62.05;21.05;;;14.20;68.10;;;;;;5095954;28;20076;-63
2022/12/10 03:20:42;;;;;;;70.20;21.98;;;14.30;67.00;;;;;;5093743;28;20088;-64
2022/12/10 03:23:13;;;;;;;71.78;21.65;;;14.40;67.20;;;;;;5079038;28;20406;-62
2022/12/10 03:25:41;;;;;;;77.70;23.13;;;14.40;67.20;;;;;;5081604;28;20079;-62
2022/12/10 03:28:08;;;;;;;68.53;24.58;;;14.40;67.70;;;;;;5078451;28;20081;-65
2022/12/10 03:30:38;;;;;;;99.82;32.25;;;14.50;65.30;;;;;;5079924;28;20488;-63
2022/12/10 03:33:05;;;;;;;97.35;35.70;;;14.50;64.10;;;;;;5084050;28;20088;-63
2022/12/10 03:35:31;;;;;;;82.72;32.45;;;14.50;64.80;;;;;;5082383;28;20065;-64
2022/12/10 03:37:58;;;;;;;92.95;32.72;;;14.70;64.90;;;;;;5082216;28;20585;-63
2022/12/10 03:40:24;;;;;;;;;;;14.60;64.70;;;;;;5081792;28;20071;-63
2022/12/10 03:42:51;;;;;;;81.73;27.10;;;14.40;65.80;;;;;;5082973;28;20048;-63
2022/12/10 03:45:18;;;;;;;87.80;27.08;;;14.30;66.00;;;;;;5081060;28;20073;-62
2022/12/10 03:47:44;;;;;;;;;;;14.30;66.70;;;;;;5077715;28;20066;-62
2022/12/10 03:50:10;;;;;;;95.97;27.92;;;14.30;67.20;;;;;;5082005;28;20020;-63
2022/12/10 03:52:36;;;;;;;;;;;14.20;67.40;;;;;;5079656;28;20080;-62
2022/12/10 03:55:03;;;;;;;77.68;25.70;;;14.10;68.10;;;;;;5082705;28;19956;-62
2022/12/10 03:57:30;;;;;;;92.00;26.13;;;14.10;68.90;;;;;;5086041;28;20527;-62
2022/12/10 03:59:56;;;;;;;;;;;14.00;68.90;;;;;;5079086;28;20113;-65
2022/12/10 04:02:22;;;;;;;79.07;25.25;;;14.00;68.90;;;;;;5086833;28;19970;-64
2022/12/10 04:04:48;;;;;;;;;;;13.90;68.50;;;;;;5081508;28;20088;-62
2022/12/10 04:07:14;;;;;;;88.57;26.98;;;13.90;69.00;;;;;;5080517;28;19957;-63
2022/12/10 04:09:40;;;;;;;;;;;13.80;69.40;;;;;;5083230;28;20116;-63
2022/12/10 04:12:07;;;;;;;78.88;27.33;;;13.70;68.50;;;;;;5081701;28;19956;-62
2022/12/10 04:17:18;;;;;;;101.00;27.63;;;13.80;69.40;;;;;;5082932;28;20091;-62
2022/12/10 04:19:44;;;;;;;;;;;13.70;69.10;;;;;;5081591;28;20154;-63
2022/12/10 04:27:37;;;;;;;108.68;29.63;;;13.50;70.70;;;;;;5088623;28;20545;-64
2022/12/10 04:30:07;;;;;;;92.47;27.45;;;13.50;70.80;;;;;;5082963;28;20092;-63
2022/12/10 04:32:33;;;;;;;97.20;31.00;;;13.50;71.20;;;;;;5081146;28;20556;-65
2022/12/10 04:34:59;;;;;;;;;;;13.50;71.10;;;;;;5075259;28;20070;-62
2022/12/10 04:37:27;;;;;;;116.63;30.15;;;13.40;70.50;;;;;;5073530;28;20027;-65
2022/12/10 04:39:54;;;;;;;123.13;32.55;;;13.50;71.20;;;;;;5071806;28;20131;-63
2022/12/10 04:42:22;;;;;;;118.95;32.08;;;13.50;71.00;;;;;;5077808;28;20510;-62
2022/12/10 04:44:49;;;;;;;116.40;32.83;;;13.50;70.40;;;;;;5092874;28;20143;-64
2022/12/10 04:47:15;;;;;;;123.90;37.03;;;13.50;71.00;;;;;;5087146;28;20081;-62
2022/12/10 04:49:42;;;;;;;118.82;35.45;;;13.50;71.30;;;;;;5078845;28;20104;-64
2022/12/10 04:52:12;;;;;;;135.93;34.22;;;13.50;71.40;;;;;;5082436;28;20519;-65
2022/12/10 04:54:39;;;;;;;118.38;34.88;;;13.50;71.30;;;;;;5083665;28;20072;-64
2022/12/10 04:57:07;;;;;;;115.57;36.08;;;13.40;71.40;;;;;;5081727;28;20065;-62
2022/12/10 04:59:34;;;;;;;123.00;35.85;;;13.40;71.50;;;;;;5077152;28;20087;-63
2022/12/10 05:02:01;;;;;;;135.20;37.70;;;13.30;71.40;;;;;;5082259;28;20076;-62
2022/12/10 05:04:27;;;;;;;;;;;13.30;71.10;;;;;;5082862;28;20080;-63
2022/12/10 05:06:54;;;;;;;128.60;39.63;;;13.30;71.70;;;;;;5077241;28;19960;-65
2022/12/10 05:09:20;;;;;;;138.27;41.45;;;13.20;72.20;;;;;;5078030;28;20143;-65
2022/12/10 05:11:46;;;;;;;;;;;13.20;72.70;;;;;;5078915;28;20069;-65
2022/12/10 05:14:15;;;;;;;145.43;41.03;;;13.10;72.60;;;;;;5081776;28;20050;-63
2022/12/10 05:16:42;;;;;;;152.60;44.20;;;13.10;72.90;;;;;;5081429;28;20077;-62
2022/12/10 05:19:10;;;;;;;119.75;41.13;;;13.00;73.10;;;;;;5073960;28;20414;-61
2022/12/10 05:24:21;;;;;;;132.95;43.78;;;12.90;73.60;;;;;;5080191;28;20122;-62
2022/12/10 05:26:50;;;;;;;;;;;12.90;74.40;;;;;;5082187;28;20072;-64
2022/12/10 05:29:17;;;;;;;108.47;39.45;;;12.80;75.00;;;;;;5079534;28;20379;-62
2022/12/10 05:31:43;;;;;;;113.32;39.38;;;12.70;75.40;;;;;;5079073;28;20077;-63
2022/12/10 05:34:10;;;;;;;;;;;12.70;75.40;;;;;;5080459;28;20144;-62
2022/12/10 05:36:37;;;;;;;102.60;40.63;;;12.70;75.50;;;;;;5079935;28;20014;-62
2022/12/10 05:39:04;;;;;;;99.38;39.20;;;12.60;75.60;;;;;;5079891;28;20072;-64
2022/12/10 05:41:34;;;;;;;125.40;39.08;;;12.50;75.70;;;;;;5078240;28;20076;-62
2022/12/10 05:44:00;;;;;;;100.38;37.35;;;12.40;75.80;;;;;;5074726;28;20069;-64
2022/12/10 05:46:30;;;;;;;115.85;37.83;;;12.50;75.30;;;;;;5085465;28;20186;-64
2022/12/10 05:48:57;;;;;;;90.55;32.05;;;12.50;76.00;;;;;;5075619;28;20084;-63
2022/12/10 05:51:26;;;;;;;85.22;28.25;;;12.30;73.90;;;;;;5075654;28;20151;-64
2022/12/10 05:53:54;;;;;;;83.28;27.98;;;12.30;74.80;;;;;;5080913;28;20438;-62
2022/12/10 05:56:23;;;;;;;69.82;27.02;;;12.40;75.20;;;;;;5078503;28;20545;-63
2022/12/10 05:58:52;;;;;;;87.80;29.90;;;12.40;74.80;;;;;;5079341;28;20167;-64
2022/12/10 06:01:25;;;;;;;80.47;29.45;;;12.30;74.60;;;;;;5080084;28;20529;-63
2022/12/10 06:03:52;;;;;;;100.78;39.42;;;12.30;75.40;;;;;;5076898;28;20128;-62
2022/12/10 06:06:27;;;;;;;81.32;34.10;;;12.20;76.00;;;;;;5077636;28;20095;-64
2022/12/10 06:08:54;;;;;;;101.93;46.00;;;12.10;77.30;;;;;;5077022;28;20165;-62
2022/12/10 06:11:21;;;;;;;113.57;45.88;;;12.00;76.40;;;;;;5076992;28;20525;-63
2022/12/10 06:13:48;;;;;;;93.53;44.25;;;12.00;77.00;;;;;;5077126;28;20081;-61
2022/12/10 06:16:15;;;;;;;80.13;28.52;;;12.00;77.10;;;;;;5074723;28;20122;-63
2022/12/10 06:18:42;;;;;;;72.55;27.60;;;11.70;77.10;;;;;;5076044;28;20085;-62
2022/12/10 06:21:11;;;;;;;91.57;28.33;;;11.80;77.40;;;;;;5078548;28;20115;-61
2022/12/10 06:23:38;;;;;;;87.75;28.58;;;11.70;77.40;;;;;;5077304;28;20069;-63
2022/12/10 06:26:10;;;;;;;83.10;27.02;;;11.70;78.40;;;;;;5080897;28;20068;-64
2022/12/10 06:28:37;;;;;;;80.53;28.13;;;11.70;77.80;;;;;;5082899;28;20066;-63
2022/12/10 06:31:03;;;;;;;82.75;28.60;;;11.60;78.10;;;;;;5074511;28;20076;-62
2022/12/10 06:33:30;;;;;;;97.65;29.95;;;11.60;78.20;;;;;;5078929;28;20068;-62
2022/12/10 06:35:56;;;;;;;107.50;31.42;;;11.60;78.60;;;;;;5079850;28;20069;-63
2022/12/10 06:38:22;;;;;;;;;;;11.60;79.10;;;;;;5074702;28;20076;-62
2022/12/10 06:40:49;;;;;;;101.63;35.95;;;11.60;79.30;;;;;;5077667;28;20009;-63
2022/12/10 06:43:16;;;;;;;99.65;33.72;;;11.60;79.90;;;;;;5078842;28;20081;-64
2022/12/10 06:45:42;;;;;;;;;;;11.60;79.40;;;;;;5081965;28;20072;-61
2022/12/10 06:48:09;;;;;;;120.78;35.65;;;11.50;79.60;;;;;;5080584;28;20421;-63
2022/12/10 06:50:36;;;;;;;118.40;36.08;;;11.50;79.80;;;;;;5077311;28;20080;-63
2022/12/10 06:53:02;;;;;;;119.85;36.50;;;11.50;79.80;;;;;;5080036;28;20069;-62
2022/12/10 06:55:29;;;;;;;112.38;38.28;;;11.50;80.20;;;;;;5077820;28;20100;-61
2022/12/10 06:57:55;;;;;;;109.97;36.65;;;11.30;80.80;;;;;;5085214;28;20122;-60
2022/12/10 07:00:21;;;;;;;;;;;11.30;80.60;;;;;;5083745;28;20076;-61
2022/12/10 07:02:48;;;;;;;133.27;42.13;;;11.20;82.20;;;;;;5081962;28;19960;-62
2022/12/10 07:05:15;;;;;;;148.23;44.63;;;11.00;81.90;;;;;;5075962;28;20453;-63
2022/12/10 07:07:42;;;;;;;155.70;45.97;;;11.00;81.60;;;;;;5082577;28;20081;-62
2022/12/10 07:10:09;;;;;;;143.48;44.05;;;11.00;81.30;;;;;;5081964;28;20181;-64
2022/12/10 07:12:35;;;;;;;154.88;47.53;;;11.10;81.20;;;;;;5077575;28;20088;-62
2022/12/10 07:15:02;;;;;;;155.40;43.78;;;11.00;82.00;;;;;;5080897;28;20077;-61
2022/12/10 07:17:28;;;;;;;169.85;47.05;;;11.10;82.50;;;;;;5083345;28;20154;-64
2022/12/10 07:19:54;;;;;;;;;;;11.00;82.10;;;;;;5082073;28;20076;-65
2022/12/10 07:22:20;;;;;;;155.23;45.40;;;10.80;81.50;;;;;;5081917;28;19963;-64
2022/12/10 07:24:48;;;;;;;;;;;10.90;81.40;;;;;;5086337;28;20077;-62
2022/12/10 07:27:14;;;;;;;172.75;45.13;;;10.90;81.30;;;;;;5081609;28;19957;-64
2022/12/10 07:29:41;;;;;;;166.55;47.00;;;10.90;81.30;;;;;;5081203;28;20093;-65
2022/12/10 07:32:07;;;;;;;;;;;10.90;82.10;;;;;;5081981;28;20073;-63
2022/12/10 07:34:33;;;;;;;134.30;47.50;;;10.90;81.70;;;;;;5078987;28;19965;-63
2022/12/10 07:36:59;;;;;;;;;;;10.90;82.30;;;;;;5079609;28;20065;-61
2022/12/10 07:39:25;;;;;;;153.32;50.58;;;10.70;81.00;;;;;;5084962;28;20348;-62
2022/12/10 07:41:52;;;;;;;;;;;10.60;81.70;;;;;;5080293;28;20601;-62
2022/12/10 07:44:24;;;;;;;166.13;46.80;;;10.60;81.90;;;;;;5085674;28;20004;-62
2022/12/10 07:46:52;;;;;;;171.13;48.40;;;10.60;81.80;;;;;;5079119;28;20081;-61
2022/12/10 07:49:19;;;;;;;151.25;48.53;;;10.70;82.10;;;;;;5084734;28;20442;-62
2022/12/10 07:51:47;;;;;;;155.00;48.08;;;10.70;82.30;;;;;;5078560;28;20072;-61
2022/12/10 07:54:14;;;;;;;154.82;47.05;;;10.70;81.40;;;;;;5078773;28;20069;-63
2022/12/10 07:56:44;;;;;;;147.75;45.30;;;10.60;81.60;;;;;;5081993;28;20069;-64
2022/12/10 07:59:11;;;;;;;173.10;48.65;;;10.60;81.40;;;;;;5085658;28;20069;-62
2022/12/10 08:01:38;;;;;;;150.60;47.95;;;10.50;81.70;;;;;;5084038;28;20077;-62
2022/12/10 08:04:05;;;;;;;154.88;50.40;;;10.60;83.30;;;;;;5085829;28;20079;-61
2022/12/10 08:06:31;;;;;;;172.07;51.05;;;10.60;82.70;;;;;;5079130;28;20077;-61
2022/12/10 08:09:00;;;;;;;;;;;10.70;82.40;;;;;;5080342;28;20525;-64
2022/12/10 08:11:28;;;;;;;155.63;51.40;;;10.70;82.30;;;;;;5078558;28;20433;-62
2022/12/10 08:13:55;;;;;;;135.23;50.28;;;10.70;81.80;;;;;;5079948;28;20081;-64
2022/12/10 08:16:25;;;;;;;165.13;51.67;;;10.50;83.00;;;;;;5083828;28;20088;-65
2022/12/10 08:18:51;;;;;;;151.43;52.55;;;10.50;83.90;;;;;;5080949;28;20449;-64
2022/12/10 08:21:20;;;;;;;147.68;49.85;;;10.60;82.70;;;;;;5082520;28;20083;-65
2022/12/10 08:23:47;;;;;;;153.80;52.67;;;10.60;81.80;;;;;;5079967;28;20070;-65
2022/12/10 08:26:17;;;;;;;157.90;49.30;;;10.60;81.70;;;;;;5077281;28;20141;-63
2022/12/10 08:28:43;;;;;;;150.95;51.67;;;10.60;81.20;;;;;;5079720;28;20065;-63
2022/12/10 08:31:11;;;;;;;158.13;50.85;;;10.50;81.70;;;;;;5078685;28;20414;-63
2022/12/10 08:33:38;;;;;;;150.07;51.78;;;10.50;83.00;;;;;;5078478;28;20157;-62
2022/12/10 08:36:06;;;;;;;154.18;51.75;;;10.40;83.60;;;;;;5081678;28;20069;-63
2022/12/10 08:38:34;;;;;;;150.20;50.50;;;10.50;82.90;;;;;;5080097;28;20072;-64
2022/12/10 08:41:23;;;;;;;148.70;51.45;;;10.40;82.00;;;;;;5079050;28;20092;-64
2022/12/10 08:43:53;;;;;;;160.82;51.22;;;10.40;82.50;;;;;;5080632;28;20125;-62
2022/12/10 08:46:19;;;;;;;155.00;53.45;;;10.40;83.00;;;;;;5077796;28;20073;-62
2022/12/10 08:48:48;;;;;;;;;;;10.20;83.00;;;;;;5079290;28;20074;-63
2022/12/10 08:51:17;;;;;;;165.57;56.92;;;10.20;83.50;;;;;;5077083;28;20011;-64
2022/12/10 08:53:44;;;;;;;160.75;52.50;;;10.30;84.80;;;;;;5077202;28;20073;-62
2022/12/10 08:56:11;;;;;;;158.48;51.70;;;10.30;84.50;;;;;;5080649;28;20123;-62
2022/12/10 08:58:38;;;;;;;168.07;51.80;;;10.30;83.80;;;;;;5083579;28;20109;-62
2022/12/10 09:01:14;;;;;;;163.85;51.95;;;10.40;83.60;;;;;;5082675;28;20093;-63
2022/12/10 09:03:41;;;;;;;171.70;56.15;;;10.30;83.20;;;;;;5083500;28;20072;-61
2022/12/10 09:06:11;;;;;;;155.60;53.80;;;10.30;84.20;;;;;;5082824;28;20450;-63
2022/12/10 09:08:41;;;;;;;158.25;50.72;;;10.20;84.60;;;;;;5076415;28;20110;-62
2022/12/10 09:11:14;;;;;;;158.55;53.95;;;10.20;84.10;;;;;;5082150;28;20073;-63
2022/12/10 09:13:41;;;;;;;153.05;52.83;;;10.20;84.00;;;;;;5078859;28;20069;-62
2022/12/10 09:16:08;;;;;;;168.82;53.28;;;10.10;84.90;;;;;;5083171;28;20155;-63
2022/12/10 09:18:34;;;;;;;157.38;54.78;;;10.10;85.30;;;;;;5078580;28;20073;-62
2022/12/10 09:21:05;;;;;;;;;;;10.10;84.70;;;;;;5080545;28;20471;-63
2022/12/10 09:23:31;;;;;;;168.98;51.60;;;10.10;84.60;;;;;;5079696;28;19957;-65
2022/12/10 09:25:57;;;;;;;;;;;10.10;84.90;;;;;;5082600;28;20501;-65
2022/12/10 09:28:24;;;;;;;143.45;50.40;;;10.00;84.50;;;;;;5080003;28;20446;-65
2022/12/10 09:30:56;;;;;;;;;;;9.90;85.10;;;;;;5075208;28;20134;-65
2022/12/10 09:33:23;;;;;;;166.02;54.83;;;9.90;85.60;;;;;;5078719;28;19953;-63
2022/12/10 09:35:49;;;;;;;;;;;9.90;84.90;;;;;;5076318;28;20085;-64
2022/12/10 09:38:15;;;;;;;177.05;56.33;;;10.00;84.80;;;;;;5078156;28;19964;-64
2022/12/10 09:41:04;;;;;;;;;;;10.00;84.60;;;;;;5076531;28;20081;-63
2022/12/10 09:43:52;;;;;;;160.55;58.13;;;9.90;85.30;;;;;;5071493;28;20011;-63
2022/12/10 09:46:24;;;;;;;164.48;55.58;;;9.90;85.80;;;;;;5077386;28;20079;-64
2022/12/10 09:48:53;;;;;;;159.65;52.58;;;9.90;85.10;;;;;;5074804;28;20076;-62
2022/12/10 09:51:26;;;;;;;160.27;54.15;;;9.90;85.00;;;;;;5081964;28;20085;-64
2022/12/10 09:53:58;;;;;;;147.55;54.00;;;9.90;84.90;;;;;;5078322;28;20091;-63
2022/12/10 09:56:34;;;;;;;160.30;52.35;;;9.80;85.40;;;;;;5078298;28;20075;-62
2022/12/10 09:59:11;;;;;;;140.20;52.35;;;9.90;86.30;;;;;;5084959;28;20069;-62
2022/12/10 10:01:38;;;;;;;127.70;53.10;;;9.80;85.70;;;;;;5074762;28;20164;-62
2022/12/10 10:04:05;;;;;;;139.18;51.78;;;9.60;85.10;;;;;;5078265;28;20502;-62
2022/12/10 10:06:32;;;;;;;162.13;53.55;;;9.60;86.00;;;;;;5084595;28;20163;-63
2022/12/10 10:09:01;;;;;;;169.05;55.85;;;9.60;85.60;;;;;;5079592;28;20113;-64
2022/12/10 10:11:31;;;;;;;157.82;55.60;;;9.70;86.80;;;;;;5079364;28;20098;-64
2022/12/10 10:14:06;;;;;;;162.40;55.00;;;9.60;85.90;;;;;;5076997;28;20061;-63
2022/12/10 10:16:39;;;;;;;161.65;55.20;;;9.70;86.10;;;;;;5082522;28;20499;-62
2022/12/10 10:19:17;;;;;;;138.52;52.47;;;9.60;85.90;;;;;;5077879;28;20156;-63
2022/12/10 10:21:47;;;;;;;138.43;51.55;;;9.60;85.90;;;;;;5078383;28;20072;-63
2022/12/10 10:24:33;;;;;;;146.18;53.85;;;9.70;86.80;;;;;;5079997;28;20115;-66
2022/12/10 10:27:13;;;;;;;144.05;54.03;;;9.70;87.70;;;;;;5078795;28;20069;-65
2022/12/10 10:29:40;;;;;;;150.30;51.38;;;9.60;87.40;;;;;;5077840;28;20142;-62
2022/12/10 10:32:26;;;;;;;144.85;51.58;;;9.40;86.80;;;;;;5084489;28;20065;-62
2022/12/10 10:34:55;;;;;;;141.00;48.07;;;9.40;97.50;;;;;;5082917;28;20073;-64
2022/12/10 10:37:22;;;;;;;145.57;49.28;;;;;;;;;;5080622;28;20282;-62
2022/12/10 10:39:50;;;;;;;134.20;52.75;;;9.40;99.90;;;;;;5083964;28;20108;-63
2022/12/10 10:42:36;;;;;;;138.52;51.78;;;9.50;87.50;;;;;;5082289;28;20070;-64
2022/12/10 10:45:05;;;;;;;129.07;52.92;;;9.50;86.50;;;;;;5083471;28;20092;-65
2022/12/10 10:47:36;;;;;;;138.18;50.20;;;9.40;86.40;;;;;;5080291;28;20076;-64
2022/12/10 10:50:07;;;;;;;125.75;53.33;;;9.40;87.40;;;;;;5083872;28;20085;-63
2022/12/10 10:52:38;;;;;;;128.30;48.70;;;9.40;88.00;;;;;;5079304;28;20081;-63
2022/12/10 10:55:05;;;;;;;125.20;49.47;;;9.40;87.70;;;;;;5082404;28;20065;-64
2022/12/10 10:57:36;;;;;;;131.13;48.53;;;9.30;86.80;;;;;;5082267;28;20061;-62
2022/12/10 11:00:07;;;;;;;122.55;49.10;;;9.20;87.00;;;;;;5076252;28;20069;-62
2022/12/10 11:02:37;;;;;;;141.18;48.47;;;9.20;87.60;;;;;;5081953;28;20096;-64
2022/12/10 11:05:27;;;;;;;118.03;47.15;;;9.30;88.10;;;;;;5081884;28;20134;-62
2022/12/10 11:08:03;;;;;;;143.75;49.70;;;8.80;91.00;;;;;;5079873;28;20077;-64
2022/12/10 11:10:30;;;;;;;126.03;51.00;;;8.70;98.20;;;;;;5080546;28;20108;-64
2022/12/10 11:13:06;;;;;;;129.25;49.95;;;8.80;90.20;;;;;;5078475;28;20077;-64
2022/12/10 11:15:41;;;;;;;118.93;50.93;;;8.80;87.70;;;;;;5086471;28;20076;-63
2022/12/10 11:18:36;;;;;;;123.43;51.65;;;8.90;88.50;;;;;;5082501;28;20088;-63
2022/12/10 11:21:21;;;;;;;117.97;49.63;;;8.70;99.90;;;;;;5078075;28;20077;-64
2022/12/10 11:23:52;;;;;;;116.70;51.90;;;8.90;98.00;;;;;;5077750;28;20099;-65
2022/12/10 11:26:43;;;;;;;126.93;49.95;;;9.00;88.60;;;;;;5080116;28;20445;-64
2022/12/10 11:29:37;;;;;;;126.00;52.00;;;8.90;88.20;;;;;;5075581;28;20096;-64
2022/12/10 11:32:18;;;;;;;132.57;50.45;;;8.80;95.70;;;;;;5082127;28;20151;-64
2022/12/10 11:35:11;;;;;;;119.18;48.05;;;9.00;97.20;;;;;;5078963;28;20155;-65
2022/12/10 11:38:02;;;;;;;126.30;46.15;;;8.90;88.20;;;;;;5085195;28;20069;-65
2022/12/10 11:40:43;;;;;;;123.97;48.88;;;9.00;88.20;;;;;;5071792;28;20449;-64
2022/12/10 11:43:40;;;;;;;101.10;46.17;;;8.90;88.40;;;;;;5078728;28;20613;-65
2022/12/10 11:46:19;;;;;;;103.97;42.60;;;8.80;88.10;;;;;;5079108;28;20525;-65
2022/12/10 11:48:51;;;;;;;115.38;44.80;;;8.80;87.00;;;;;;5081764;28;20522;-62
2022/12/10 11:51:23;;;;;;;93.90;41.08;;;9.30;98.30;;;;;;5080980;28;20081;-62
2022/12/10 11:54:31;;;;;;;99.10;39.85;;;8.80;88.10;;;;;;5075563;28;20069;-64
2022/12/10 11:57:08;;;;;;;94.68;40.97;;;8.80;87.30;;;;;;5080391;28;20069;-64
2022/12/10 12:00:19;;;;;;;95.72;41.42;;;8.70;99.90;;;;;;5082057;28;20475;-62
2022/12/10 12:02:45;;;;;;;101.47;40.22;;;8.70;94.60;;;;;;5047747;28;20089;-64
2022/12/10 12:05:36;;;;;;;;;;;8.70;88.30;;;;;;5084948;28;20194;-63
2022/12/10 12:08:23;;;;;;;92.70;39.30;;;8.60;87.80;;;;;;5078714;28;20061;-62
2022/12/10 12:11:01;;;;;;;90.40;39.13;;;8.70;87.40;;;;;;5079663;28;20096;-64
2022/12/10 12:13:38;;;;;;;86.95;39.47;;;8.60;87.40;;;;;;5080205;28;20087;-65
2022/12/10 12:16:13;;;;;;;90.25;38.65;;;8.60;87.60;;;;;;5082670;28;20590;-64
2022/12/10 12:18:54;;;;;;;92.70;41.20;;;8.60;87.90;;;;;;5079781;28;20080;-63
2022/12/10 12:21:21;;;;;;;90.70;38.22;;;8.30;88.90;;;;;;5074883;28;20529;-62
2022/12/10 12:23:59;;;;;;;106.18;39.45;;;8.30;90.00;;;;;;5082523;28;20076;-62
2022/12/10 12:26:37;;;;;;;94.40;42.05;;;8.30;95.40;;;;;;5077787;28;20121;-64
2022/12/10 12:29:25;;;;;;;109.30;40.97;;;8.40;90.30;;;;;;5084545;28;20085;-62
2022/12/10 12:32:19;;;;;;;105.05;39.95;;;8.50;90.20;;;;;;5080813;28;21273;-62
2022/12/10 12:35:01;;;;;;;120.05;37.88;;;8.00;97.20;;;;;;5081530;28;20065;-62
2022/12/10 12:38:09;;;;;;;89.22;39.33;;;8.30;89.60;;;;;;5077540;28;20480;-64
2022/12/10 12:40:52;;;;;;;91.28;38.72;;;8.80;99.90;;;;;;5056927;28;20087;-62
2022/12/10 12:43:49;;;;;;;85.47;36.53;;;8.30;89.60;;;;;;5081498;28;20460;-63
2022/12/10 12:46:42;;;;;;;91.85;38.05;;;8.20;90.10;;;;;;5072352;28;20076;-63
2022/12/10 12:49:29;;;;;;;93.80;38.55;;;8.00;94.30;;;;;;5077871;28;20096;-62
2022/12/10 12:52:11;;;;;;;96.23;39.03;;;8.20;90.50;;;;;;5082054;28;20470;-64
2022/12/10 12:54:37;;;;;;;99.45;37.50;;;8.30;90.30;;;;;;5075110;28;20798;-62
2022/12/10 12:57:12;;;;;;;;;;;8.20;90.20;;;;;;5084060;28;20077;-64
2022/12/10 12:59:41;;;;;;;94.63;38.42;;;8.10;90.60;;;;;;5080311;28;20410;-62
2022/12/10 13:02:26;;;;;;;101.82;40.10;;;8.10;90.40;;;;;;5084036;28;20149;-62
2022/12/10 13:04:53;;;;;;;106.43;39.88;;;8.00;90.90;;;;;;5075245;28;20085;-63
2022/12/10 13:07:19;;;;;;;109.88;43.00;;;8.10;90.70;;;;;;5079393;28;20077;-65
2022/12/10 13:09:47;;;;;;;;;;;8.00;90.70;;;;;;5077106;28;20108;-64